sensor_id;sensor_type;location;lat;lon;timestamp;P1;durP1;ratioP1;P2;durP2;ratioP2
9166;SDS011;4618;48.818;9.088;2023-03-01T00:01:17;23.93;;;17.40;;
9166;SDS011;4618;48.818;9.088;2023-03-01T00:03:45;23.10;;;16.40;;
9166;SDS011;4618;48.818;9.088;2023-03-01T00:06:11;23.03;;;16.63;;
9166;SDS011;4618;48.818;9.088;2023-03-01T00:08:37;27.60;;;17.90;;
9166;SDS011;4618;48.818;9.088;2023-03-01T00:11:07;26.23;;;17.57;;
9166;SDS011;4618;48.818;9.088;2023-03-01T00:13:39;25.80;;;17.87;;
9166;SDS011;4618;48.818;9.088;2023-03-01T00:16:06;26.30;;;18.07;;
9166;SDS011;4618;48.818;9.088;2023-03-01T00:18:33;25.53;;;17.00;;
9166;SDS011;4618;48.818;9.088;2023-03-01T00:20:59;23.93;;;17.87;;
9166;SDS011;4618;48.818;9.088;2023-03-01T00:23:24;28.93;;;17.43;;
9166;SDS011;4618;48.818;9.088;2023-03-01T00:25:51;27.90;;;19.23;;
9166;SDS011;4618;48.818;9.088;2023-03-01T00:28:17;25.73;;;18.40;;
9166;SDS011;4618;48.818;9.088;2023-03-01T00:30:43;29.30;;;18.40;;
9166;SDS011;4618;48.818;9.088;2023-03-01T00:33:09;27.53;;;18.77;;
9166;SDS011;4618;48.818;9.088;2023-03-01T00:35:35;25.13;;;17.63;;
9166;SDS011;4618;48.818;9.088;2023-03-01T00:38:01;27.30;;;19.17;;
9166;SDS011;4618;48.818;9.088;2023-03-01T00:40:29;26.73;;;18.70;;
9166;SDS011;4618;48.818;9.088;2023-03-01T00:42:56;24.97;;;17.37;;
9166;SDS011;4618;48.818;9.088;2023-03-01T00:45:22;24.40;;;17.90;;
9166;SDS011;4618;48.818;9.088;2023-03-01T00:47:48;28.30;;;18.30;;
9166;SDS011;4618;48.818;9.088;2023-03-01T00:50:15;29.33;;;19.10;;
9166;SDS011;4618;48.818;9.088;2023-03-01T00:52:41;27.60;;;19.53;;
9166;SDS011;4618;48.818;9.088;2023-03-01T00:55:07;25.37;;;17.93;;
9166;SDS011;4618;48.818;9.088;2023-03-01T00:57:33;26.37;;;18.43;;
9166;SDS011;4618;48.818;9.088;2023-03-01T00:59:58;27.50;;;18.40;;
9166;SDS011;4618;48.818;9.088;2023-03-01T01:02:24;24.87;;;17.67;;
9166;SDS011;4618;48.818;9.088;2023-03-01T01:04:50;23.00;;;16.33;;
9166;SDS011;4618;48.818;9.088;2023-03-01T01:07:16;23.47;;;17.07;;
9166;SDS011;4618;48.818;9.088;2023-03-01T01:09:42;23.90;;;16.13;;
9166;SDS011;4618;48.818;9.088;2023-03-01T01:12:07;27.90;;;17.07;;
9166;SDS011;4618;48.818;9.088;2023-03-01T01:14:34;25.13;;;18.10;;
9166;SDS011;4618;48.818;9.088;2023-03-01T01:17:00;27.77;;;17.37;;
9166;SDS011;4618;48.818;9.088;2023-03-01T01:19:25;22.90;;;16.20;;
9166;SDS011;4618;48.818;9.088;2023-03-01T01:21:51;23.50;;;16.73;;
9166;SDS011;4618;48.818;9.088;2023-03-01T01:24:17;23.63;;;16.90;;
9166;SDS011;4618;48.818;9.088;2023-03-01T01:26:43;24.33;;;16.40;;
9166;SDS011;4618;48.818;9.088;2023-03-01T01:29:09;27.73;;;16.77;;
9166;SDS011;4618;48.818;9.088;2023-03-01T01:31:35;25.77;;;17.87;;
9166;SDS011;4618;48.818;9.088;2023-03-01T01:34:03;31.53;;;18.73;;
9166;SDS011;4618;48.818;9.088;2023-03-01T01:36:31;27.10;;;18.90;;
9166;SDS011;4618;48.818;9.088;2023-03-01T01:38:57;28.97;;;18.87;;
9166;SDS011;4618;48.818;9.088;2023-03-01T01:41:23;26.77;;;18.13;;
9166;SDS011;4618;48.818;9.088;2023-03-01T01:46:47;29.27;;;18.90;;
9166;SDS011;4618;48.818;9.088;2023-03-01T01:51:51;30.37;;;18.43;;
9166;SDS011;4618;48.818;9.088;2023-03-01T01:54:23;25.07;;;17.33;;
9166;SDS011;4618;48.818;9.088;2023-03-01T01:56:55;29.00;;;18.73;;
9166;SDS011;4618;48.818;9.088;2023-03-01T01:59:27;26.37;;;18.20;;
9166;SDS011;4618;48.818;9.088;2023-03-01T02:01:54;26.77;;;18.00;;
9166;SDS011;4618;48.818;9.088;2023-03-01T02:04:20;26.03;;;18.67;;
9166;SDS011;4618;48.818;9.088;2023-03-01T02:06:48;25.80;;;18.27;;
9166;SDS011;4618;48.818;9.088;2023-03-01T02:09:20;26.40;;;18.73;;
9166;SDS011;4618;48.818;9.088;2023-03-01T02:11:48;26.97;;;18.23;;
9166;SDS011;4618;48.818;9.088;2023-03-01T02:14:15;34.07;;;18.87;;
9166;SDS011;4618;48.818;9.088;2023-03-01T02:16:41;29.23;;;19.53;;
9166;SDS011;4618;48.818;9.088;2023-03-01T02:19:07;27.70;;;19.50;;
9166;SDS011;4618;48.818;9.088;2023-03-01T02:21:42;26.70;;;18.43;;
9166;SDS011;4618;48.818;9.088;2023-03-01T02:24:47;25.60;;;17.17;;
9166;SDS011;4618;48.818;9.088;2023-03-01T02:27:19;25.00;;;17.87;;
9166;SDS011;4618;48.818;9.088;2023-03-01T02:29:46;25.40;;;17.57;;
9166;SDS011;4618;48.818;9.088;2023-03-01T02:32:12;25.30;;;17.10;;
9166;SDS011;4618;48.818;9.088;2023-03-01T02:34:40;25.67;;;16.63;;
9166;SDS011;4618;48.818;9.088;2023-03-01T02:37:08;24.23;;;16.60;;
9166;SDS011;4618;48.818;9.088;2023-03-01T02:39:41;23.47;;;15.83;;
9166;SDS011;4618;48.818;9.088;2023-03-01T02:42:12;25.63;;;16.13;;
9166;SDS011;4618;48.818;9.088;2023-03-01T02:44:41;22.30;;;16.10;;
9166;SDS011;4618;48.818;9.088;2023-03-01T02:47:07;25.10;;;17.10;;
9166;SDS011;4618;48.818;9.088;2023-03-01T02:49:34;24.33;;;16.97;;
9166;SDS011;4618;48.818;9.088;2023-03-01T02:52:05;22.00;;;16.03;;
9166;SDS011;4618;48.818;9.088;2023-03-01T02:57:38;24.23;;;16.77;;
9166;SDS011;4618;48.818;9.088;2023-03-01T03:00:07;23.07;;;16.90;;
9166;SDS011;4618;48.818;9.088;2023-03-01T03:02:44;24.30;;;17.30;;
9166;SDS011;4618;48.818;9.088;2023-03-01T03:05:18;23.93;;;16.60;;
9166;SDS011;4618;48.818;9.088;2023-03-01T03:07:45;21.37;;;16.40;;
9166;SDS011;4618;48.818;9.088;2023-03-01T03:10:14;22.43;;;16.43;;
9166;SDS011;4618;48.818;9.088;2023-03-01T03:12:41;20.23;;;15.60;;
9166;SDS011;4618;48.818;9.088;2023-03-01T03:15:08;21.57;;;16.37;;
9166;SDS011;4618;48.818;9.088;2023-03-01T03:17:36;22.17;;;15.77;;
9166;SDS011;4618;48.818;9.088;2023-03-01T03:20:03;20.83;;;15.40;;
9166;SDS011;4618;48.818;9.088;2023-03-01T03:22:31;18.83;;;14.70;;
9166;SDS011;4618;48.818;9.088;2023-03-01T03:24:59;22.33;;;15.37;;
9166;SDS011;4618;48.818;9.088;2023-03-01T03:27:24;21.17;;;15.63;;
9166;SDS011;4618;48.818;9.088;2023-03-01T03:29:50;20.30;;;14.67;;
9166;SDS011;4618;48.818;9.088;2023-03-01T03:32:15;21.57;;;15.47;;
9166;SDS011;4618;48.818;9.088;2023-03-01T03:34:41;21.03;;;15.50;;
9166;SDS011;4618;48.818;9.088;2023-03-01T03:37:06;21.27;;;15.73;;
9166;SDS011;4618;48.818;9.088;2023-03-01T03:39:52;22.70;;;14.77;;
9166;SDS011;4618;48.818;9.088;2023-03-01T03:42:20;20.67;;;15.17;;
9166;SDS011;4618;48.818;9.088;2023-03-01T03:44:47;20.63;;;14.93;;
9166;SDS011;4618;48.818;9.088;2023-03-01T03:47:12;22.00;;;15.67;;
9166;SDS011;4618;48.818;9.088;2023-03-01T03:49:38;22.10;;;15.40;;
9166;SDS011;4618;48.818;9.088;2023-03-01T03:52:03;20.43;;;15.33;;
9166;SDS011;4618;48.818;9.088;2023-03-01T03:54:29;21.87;;;16.17;;
9166;SDS011;4618;48.818;9.088;2023-03-01T03:56:54;21.47;;;15.90;;
9166;SDS011;4618;48.818;9.088;2023-03-01T03:59:20;23.93;;;16.30;;
9166;SDS011;4618;48.818;9.088;2023-03-01T04:01:46;22.73;;;16.63;;
9166;SDS011;4618;48.818;9.088;2023-03-01T04:04:11;20.40;;;16.00;;
9166;SDS011;4618;48.818;9.088;2023-03-01T04:06:37;23.07;;;16.80;;
9166;SDS011;4618;48.818;9.088;2023-03-01T04:09:02;22.73;;;16.07;;
9166;SDS011;4618;48.818;9.088;2023-03-01T04:11:28;26.23;;;17.57;;
9166;SDS011;4618;48.818;9.088;2023-03-01T04:13:55;20.77;;;16.37;;
9166;SDS011;4618;48.818;9.088;2023-03-01T04:16:22;23.23;;;17.10;;
9166;SDS011;4618;48.818;9.088;2023-03-01T04:18:48;19.80;;;15.93;;
9166;SDS011;4618;48.818;9.088;2023-03-01T04:21:14;21.00;;;16.33;;
9166;SDS011;4618;48.818;9.088;2023-03-01T04:23:39;24.13;;;16.67;;
9166;SDS011;4618;48.818;9.088;2023-03-01T04:26:06;22.67;;;16.87;;
9166;SDS011;4618;48.818;9.088;2023-03-01T04:28:33;22.37;;;16.70;;
9166;SDS011;4618;48.818;9.088;2023-03-01T04:31:04;23.20;;;16.97;;
9166;SDS011;4618;48.818;9.088;2023-03-01T04:33:38;25.80;;;16.60;;
9166;SDS011;4618;48.818;9.088;2023-03-01T04:36:08;23.57;;;16.67;;
9166;SDS011;4618;48.818;9.088;2023-03-01T04:38:36;21.37;;;16.00;;
9166;SDS011;4618;48.818;9.088;2023-03-01T04:41:03;22.53;;;15.23;;
9166;SDS011;4618;48.818;9.088;2023-03-01T04:43:29;22.30;;;16.77;;
9166;SDS011;4618;48.818;9.088;2023-03-01T04:45:59;22.00;;;16.87;;
9166;SDS011;4618;48.818;9.088;2023-03-01T04:48:30;22.43;;;16.87;;
9166;SDS011;4618;48.818;9.088;2023-03-01T04:50:56;22.70;;;17.03;;
9166;SDS011;4618;48.818;9.088;2023-03-01T04:53:23;20.17;;;15.93;;
9166;SDS011;4618;48.818;9.088;2023-03-01T04:55:49;21.50;;;16.60;;
9166;SDS011;4618;48.818;9.088;2023-03-01T04:58:15;20.57;;;16.13;;
9166;SDS011;4618;48.818;9.088;2023-03-01T05:00:41;20.40;;;15.43;;
9166;SDS011;4618;48.818;9.088;2023-03-01T05:03:08;22.13;;;15.40;;
9166;SDS011;4618;48.818;9.088;2023-03-01T05:05:34;22.17;;;17.33;;
9166;SDS011;4618;48.818;9.088;2023-03-01T05:08:03;20.07;;;15.83;;
9166;SDS011;4618;48.818;9.088;2023-03-01T05:10:34;20.53;;;16.20;;
9166;SDS011;4618;48.818;9.088;2023-03-01T05:13:02;20.20;;;15.90;;
9166;SDS011;4618;48.818;9.088;2023-03-01T05:15:29;21.93;;;16.40;;
9166;SDS011;4618;48.818;9.088;2023-03-01T05:17:56;20.93;;;16.40;;
9166;SDS011;4618;48.818;9.088;2023-03-01T05:20:24;25.27;;;16.00;;
9166;SDS011;4618;48.818;9.088;2023-03-01T05:22:51;25.93;;;16.30;;
9166;SDS011;4618;48.818;9.088;2023-03-01T05:25:20;21.47;;;16.60;;
9166;SDS011;4618;48.818;9.088;2023-03-01T05:27:46;18.97;;;15.47;;
9166;SDS011;4618;48.818;9.088;2023-03-01T05:30:12;21.30;;;16.43;;
9166;SDS011;4618;48.818;9.088;2023-03-01T05:32:39;21.47;;;15.83;;
9166;SDS011;4618;48.818;9.088;2023-03-01T05:35:12;25.57;;;17.13;;
9166;SDS011;4618;48.818;9.088;2023-03-01T05:37:41;22.07;;;16.00;;
9166;SDS011;4618;48.818;9.088;2023-03-01T05:40:08;22.23;;;16.30;;
9166;SDS011;4618;48.818;9.088;2023-03-01T05:42:40;22.83;;;17.03;;
9166;SDS011;4618;48.818;9.088;2023-03-01T05:45:08;20.33;;;16.10;;
9166;SDS011;4618;48.818;9.088;2023-03-01T05:47:35;20.43;;;16.17;;
9166;SDS011;4618;48.818;9.088;2023-03-01T05:50:00;23.70;;;17.20;;
9166;SDS011;4618;48.818;9.088;2023-03-01T05:52:26;21.03;;;15.43;;
9166;SDS011;4618;48.818;9.088;2023-03-01T05:54:52;21.30;;;16.43;;
9166;SDS011;4618;48.818;9.088;2023-03-01T05:57:17;21.43;;;15.70;;
9166;SDS011;4618;48.818;9.088;2023-03-01T05:59:43;23.03;;;16.47;;
9166;SDS011;4618;48.818;9.088;2023-03-01T06:02:08;21.27;;;15.50;;
9166;SDS011;4618;48.818;9.088;2023-03-01T06:04:37;21.93;;;16.33;;
9166;SDS011;4618;48.818;9.088;2023-03-01T06:07:03;19.47;;;15.63;;
9166;SDS011;4618;48.818;9.088;2023-03-01T06:09:28;24.63;;;16.83;;
9166;SDS011;4618;48.818;9.088;2023-03-01T06:11:54;22.27;;;16.27;;
9166;SDS011;4618;48.818;9.088;2023-03-01T06:14:19;23.40;;;17.00;;
9166;SDS011;4618;48.818;9.088;2023-03-01T06:16:45;21.90;;;15.93;;
9166;SDS011;4618;48.818;9.088;2023-03-01T06:19:11;22.63;;;16.03;;
9166;SDS011;4618;48.818;9.088;2023-03-01T06:21:36;23.37;;;16.27;;
9166;SDS011;4618;48.818;9.088;2023-03-01T06:24:02;21.23;;;16.30;;
9166;SDS011;4618;48.818;9.088;2023-03-01T06:26:28;23.23;;;17.67;;
9166;SDS011;4618;48.818;9.088;2023-03-01T06:28:53;22.90;;;16.83;;
9166;SDS011;4618;48.818;9.088;2023-03-01T06:31:19;23.03;;;16.90;;
9166;SDS011;4618;48.818;9.088;2023-03-01T06:33:44;22.00;;;16.57;;
9166;SDS011;4618;48.818;9.088;2023-03-01T06:36:10;25.83;;;17.73;;
9166;SDS011;4618;48.818;9.088;2023-03-01T06:38:35;23.47;;;16.43;;
9166;SDS011;4618;48.818;9.088;2023-03-01T06:41:01;22.23;;;16.80;;
9166;SDS011;4618;48.818;9.088;2023-03-01T06:43:27;24.23;;;17.07;;
9166;SDS011;4618;48.818;9.088;2023-03-01T06:45:52;22.57;;;17.17;;
9166;SDS011;4618;48.818;9.088;2023-03-01T06:48:18;22.60;;;17.70;;
9166;SDS011;4618;48.818;9.088;2023-03-01T06:50:43;24.47;;;17.63;;
9166;SDS011;4618;48.818;9.088;2023-03-01T06:53:09;22.87;;;17.53;;
9166;SDS011;4618;48.818;9.088;2023-03-01T06:55:35;24.07;;;17.63;;
9166;SDS011;4618;48.818;9.088;2023-03-01T06:58:00;23.57;;;16.27;;
9166;SDS011;4618;48.818;9.088;2023-03-01T07:00:27;24.33;;;16.60;;
9166;SDS011;4618;48.818;9.088;2023-03-01T07:02:53;24.03;;;17.43;;
9166;SDS011;4618;48.818;9.088;2023-03-01T07:05:19;24.47;;;17.33;;
9166;SDS011;4618;48.818;9.088;2023-03-01T07:07:45;23.77;;;17.40;;
9166;SDS011;4618;48.818;9.088;2023-03-01T07:10:10;24.30;;;16.73;;
9166;SDS011;4618;48.818;9.088;2023-03-01T07:12:37;23.57;;;17.40;;
9166;SDS011;4618;48.818;9.088;2023-03-01T07:15:02;23.03;;;17.27;;
9166;SDS011;4618;48.818;9.088;2023-03-01T07:17:28;24.73;;;17.73;;
9166;SDS011;4618;48.818;9.088;2023-03-01T07:19:55;23.03;;;16.77;;
9166;SDS011;4618;48.818;9.088;2023-03-01T07:22:21;26.00;;;18.33;;
9166;SDS011;4618;48.818;9.088;2023-03-01T07:24:46;24.30;;;17.93;;
9166;SDS011;4618;48.818;9.088;2023-03-01T07:27:12;24.03;;;18.17;;
9166;SDS011;4618;48.818;9.088;2023-03-01T07:29:37;26.53;;;18.83;;
9166;SDS011;4618;48.818;9.088;2023-03-01T07:32:03;26.43;;;18.23;;
9166;SDS011;4618;48.818;9.088;2023-03-01T07:34:29;30.27;;;19.23;;
9166;SDS011;4618;48.818;9.088;2023-03-01T07:36:55;31.57;;;18.97;;
9166;SDS011;4618;48.818;9.088;2023-03-01T07:39:21;25.53;;;18.60;;
9166;SDS011;4618;48.818;9.088;2023-03-01T07:41:48;29.60;;;19.17;;
9166;SDS011;4618;48.818;9.088;2023-03-01T07:44:14;27.33;;;18.80;;
9166;SDS011;4618;48.818;9.088;2023-03-01T07:46:40;29.23;;;18.73;;
9166;SDS011;4618;48.818;9.088;2023-03-01T07:49:06;25.83;;;18.57;;
9166;SDS011;4618;48.818;9.088;2023-03-01T07:51:31;29.13;;;18.57;;
9166;SDS011;4618;48.818;9.088;2023-03-01T07:53:57;25.80;;;18.87;;
9166;SDS011;4618;48.818;9.088;2023-03-01T07:56:22;28.17;;;19.97;;
9166;SDS011;4618;48.818;9.088;2023-03-01T07:58:48;26.13;;;19.50;;
9166;SDS011;4618;48.818;9.088;2023-03-01T08:01:15;28.70;;;20.00;;
9166;SDS011;4618;48.818;9.088;2023-03-01T08:03:42;24.40;;;19.10;;
9166;SDS011;4618;48.818;9.088;2023-03-01T08:06:11;27.73;;;19.40;;
9166;SDS011;4618;48.818;9.088;2023-03-01T08:08:38;25.30;;;19.03;;
9166;SDS011;4618;48.818;9.088;2023-03-01T08:11:05;27.90;;;19.30;;
9166;SDS011;4618;48.818;9.088;2023-03-01T08:13:32;25.13;;;18.57;;
9166;SDS011;4618;48.818;9.088;2023-03-01T08:16:04;25.93;;;19.27;;
9166;SDS011;4618;48.818;9.088;2023-03-01T08:18:31;25.10;;;18.07;;
9166;SDS011;4618;48.818;9.088;2023-03-01T08:23:30;23.60;;;18.07;;
9166;SDS011;4618;48.818;9.088;2023-03-01T08:26:02;27.37;;;19.03;;
9166;SDS011;4618;48.818;9.088;2023-03-01T08:28:29;23.60;;;18.00;;
9166;SDS011;4618;48.818;9.088;2023-03-01T08:30:54;24.07;;;18.37;;
9166;SDS011;4618;48.818;9.088;2023-03-01T08:33:20;28.13;;;18.40;;
9166;SDS011;4618;48.818;9.088;2023-03-01T08:35:45;24.33;;;18.30;;
9166;SDS011;4618;48.818;9.088;2023-03-01T08:38:11;30.33;;;18.63;;
9166;SDS011;4618;48.818;9.088;2023-03-01T08:40:36;23.73;;;19.00;;
9166;SDS011;4618;48.818;9.088;2023-03-01T08:43:02;26.57;;;19.10;;
9166;SDS011;4618;48.818;9.088;2023-03-01T08:45:28;25.37;;;18.43;;
9166;SDS011;4618;48.818;9.088;2023-03-01T08:47:53;24.33;;;18.90;;
9166;SDS011;4618;48.818;9.088;2023-03-01T08:50:19;23.47;;;18.00;;
9166;SDS011;4618;48.818;9.088;2023-03-01T08:52:44;22.63;;;17.63;;
9166;SDS011;4618;48.818;9.088;2023-03-01T08:55:10;23.43;;;18.00;;
9166;SDS011;4618;48.818;9.088;2023-03-01T08:57:36;21.03;;;17.07;;
9166;SDS011;4618;48.818;9.088;2023-03-01T09:00:01;22.27;;;16.90;;
9166;SDS011;4618;48.818;9.088;2023-03-01T09:02:28;20.70;;;16.67;;
9166;SDS011;4618;48.818;9.088;2023-03-01T09:04:53;21.17;;;17.83;;
9166;SDS011;4618;48.818;9.088;2023-03-01T09:07:19;21.33;;;16.70;;
9166;SDS011;4618;48.818;9.088;2023-03-01T09:09:44;19.00;;;16.80;;
9166;SDS011;4618;48.818;9.088;2023-03-01T09:12:10;21.47;;;16.80;;
9166;SDS011;4618;48.818;9.088;2023-03-01T09:14:36;21.83;;;16.53;;
9166;SDS011;4618;48.818;9.088;2023-03-01T09:17:03;20.10;;;17.10;;
9166;SDS011;4618;48.818;9.088;2023-03-01T09:19:29;19.23;;;16.43;;
9166;SDS011;4618;48.818;9.088;2023-03-01T09:21:55;20.50;;;17.40;;
9166;SDS011;4618;48.818;9.088;2023-03-01T09:24:23;21.53;;;16.20;;
9166;SDS011;4618;48.818;9.088;2023-03-01T09:26:49;18.13;;;16.23;;
9166;SDS011;4618;48.818;9.088;2023-03-01T09:29:19;18.30;;;16.40;;
9166;SDS011;4618;48.818;9.088;2023-03-01T09:31:44;18.53;;;15.73;;
9166;SDS011;4618;48.818;9.088;2023-03-01T09:34:10;19.37;;;17.30;;
9166;SDS011;4618;48.818;9.088;2023-03-01T09:36:36;18.23;;;16.33;;
9166;SDS011;4618;48.818;9.088;2023-03-01T09:39:02;17.83;;;15.93;;
9166;SDS011;4618;48.818;9.088;2023-03-01T09:44:24;18.10;;;16.30;;
9166;SDS011;4618;48.818;9.088;2023-03-01T09:47:02;18.07;;;16.17;;
9166;SDS011;4618;48.818;9.088;2023-03-01T09:49:30;18.10;;;16.20;;
9166;SDS011;4618;48.818;9.088;2023-03-01T09:54:39;17.37;;;15.47;;
9166;SDS011;4618;48.818;9.088;2023-03-01T09:57:06;18.77;;;16.90;;
9166;SDS011;4618;48.818;9.088;2023-03-01T10:00:01;18.27;;;16.30;;
9166;SDS011;4618;48.818;9.088;2023-03-01T10:02:38;18.70;;;16.80;;
9166;SDS011;4618;48.818;9.088;2023-03-01T10:08:29;17.97;;;16.17;;
9166;SDS011;4618;48.818;9.088;2023-03-01T10:11:12;19.03;;;17.03;;
9166;SDS011;4618;48.818;9.088;2023-03-01T10:19:24;19.60;;;17.60;;
9166;SDS011;4618;48.818;9.088;2023-03-01T10:22:12;19.20;;;17.20;;
9166;SDS011;4618;48.818;9.088;2023-03-01T10:24:39;18.97;;;16.80;;
9166;SDS011;4618;48.818;9.088;2023-03-01T10:27:09;17.90;;;16.20;;
9166;SDS011;4618;48.818;9.088;2023-03-01T10:29:49;21.03;;;17.03;;
9166;SDS011;4618;48.818;9.088;2023-03-01T10:32:19;18.57;;;16.77;;
9166;SDS011;4618;48.818;9.088;2023-03-01T10:34:46;18.53;;;16.73;;
9166;SDS011;4618;48.818;9.088;2023-03-01T10:39:55;19.63;;;16.43;;
9166;SDS011;4618;48.818;9.088;2023-03-01T10:42:31;19.47;;;17.17;;
9166;SDS011;4618;48.818;9.088;2023-03-01T10:45:14;17.80;;;16.10;;
9166;SDS011;4618;48.818;9.088;2023-03-01T10:47:41;19.13;;;17.30;;
9166;SDS011;4618;48.818;9.088;2023-03-01T10:50:17;18.20;;;16.40;;
9166;SDS011;4618;48.818;9.088;2023-03-01T10:52:55;18.27;;;16.43;;
9166;SDS011;4618;48.818;9.088;2023-03-01T10:55:27;22.30;;;20.07;;
9166;SDS011;4618;48.818;9.088;2023-03-01T10:58:17;18.87;;;16.97;;
9166;SDS011;4618;48.818;9.088;2023-03-01T11:00:49;18.10;;;16.40;;
9166;SDS011;4618;48.818;9.088;2023-03-01T11:03:19;18.70;;;16.83;;
9166;SDS011;4618;48.818;9.088;2023-03-01T11:11:03;18.10;;;16.30;;
9166;SDS011;4618;48.818;9.088;2023-03-01T11:16:41;18.77;;;15.77;;
9166;SDS011;4618;48.818;9.088;2023-03-01T11:21:34;16.27;;;14.67;;
9166;SDS011;4618;48.818;9.088;2023-03-01T11:24:09;16.23;;;14.47;;
9166;SDS011;4618;48.818;9.088;2023-03-01T11:26:39;16.90;;;15.23;;
9166;SDS011;4618;48.818;9.088;2023-03-01T11:29:12;16.83;;;15.23;;
9166;SDS011;4618;48.818;9.088;2023-03-01T11:31:54;17.47;;;15.70;;
9166;SDS011;4618;48.818;9.088;2023-03-01T11:34:35;17.13;;;15.43;;
9166;SDS011;4618;48.818;9.088;2023-03-01T11:37:14;16.17;;;14.57;;
9166;SDS011;4618;48.818;9.088;2023-03-01T11:40:04;15.83;;;14.33;;
9166;SDS011;4618;48.818;9.088;2023-03-01T11:45:51;16.07;;;14.57;;
9166;SDS011;4618;48.818;9.088;2023-03-01T11:48:58;16.50;;;14.90;;
9166;SDS011;4618;48.818;9.088;2023-03-01T11:54:20;15.10;;;13.50;;
9166;SDS011;4618;48.818;9.088;2023-03-01T11:57:15;16.17;;;14.57;;
9166;SDS011;4618;48.818;9.088;2023-03-01T12:13:53;14.60;;;13.30;;
9166;SDS011;4618;48.818;9.088;2023-03-01T12:19:05;16.23;;;14.57;;
9166;SDS011;4618;48.818;9.088;2023-03-01T12:21:54;14.80;;;13.33;;
9166;SDS011;4618;48.818;9.088;2023-03-01T12:24:35;15.17;;;13.40;;
9166;SDS011;4618;48.818;9.088;2023-03-01T12:38:18;15.17;;;13.57;;
9166;SDS011;4618;48.818;9.088;2023-03-01T12:41:06;16.67;;;14.97;;
9166;SDS011;4618;48.818;9.088;2023-03-01T12:46:47;15.93;;;14.43;;
9166;SDS011;4618;48.818;9.088;2023-03-01T12:49:35;16.83;;;15.23;;
9166;SDS011;4618;48.818;9.088;2023-03-01T12:54:39;16.33;;;14.63;;
9166;SDS011;4618;48.818;9.088;2023-03-01T12:57:09;16.43;;;14.80;;
9166;SDS011;4618;48.818;9.088;2023-03-01T13:00:04;16.77;;;15.07;;
9166;SDS011;4618;48.818;9.088;2023-03-01T13:02:55;16.03;;;14.33;;
9166;SDS011;4618;48.818;9.088;2023-03-01T13:05:35;15.87;;;14.37;;
9166;SDS011;4618;48.818;9.088;2023-03-01T13:08:20;15.70;;;14.10;;
9166;SDS011;4618;48.818;9.088;2023-03-01T13:10:54;16.30;;;14.77;;
9166;SDS011;4618;48.818;9.088;2023-03-01T13:13:24;16.40;;;14.70;;
9166;SDS011;4618;48.818;9.088;2023-03-01T13:15:51;15.30;;;13.80;;
9166;SDS011;4618;48.818;9.088;2023-03-01T13:20:51;15.70;;;13.83;;
9166;SDS011;4618;48.818;9.088;2023-03-01T13:26:01;15.77;;;14.27;;
9166;SDS011;4618;48.818;9.088;2023-03-01T13:30:59;15.73;;;14.00;;
9166;SDS011;4618;48.818;9.088;2023-03-01T13:35:55;15.83;;;14.10;;
9166;SDS011;4618;48.818;9.088;2023-03-01T13:41:48;15.80;;;14.30;;
9166;SDS011;4618;48.818;9.088;2023-03-01T13:49:42;16.07;;;14.27;;
9166;SDS011;4618;48.818;9.088;2023-03-01T13:52:44;17.27;;;14.20;;
9166;SDS011;4618;48.818;9.088;2023-03-01T13:55:17;16.20;;;14.60;;
9166;SDS011;4618;48.818;9.088;2023-03-01T13:57:47;15.93;;;14.07;;
9166;SDS011;4618;48.818;9.088;2023-03-01T14:08:26;16.40;;;14.67;;
9166;SDS011;4618;48.818;9.088;2023-03-01T14:13:31;16.03;;;14.33;;
9166;SDS011;4618;48.818;9.088;2023-03-01T14:21:38;16.47;;;14.73;;
9166;SDS011;4618;48.818;9.088;2023-03-01T14:26:32;17.00;;;15.20;;
9166;SDS011;4618;48.818;9.088;2023-03-01T14:29:01;16.60;;;14.77;;
9166;SDS011;4618;48.818;9.088;2023-03-01T14:31:39;18.07;;;15.27;;
9166;SDS011;4618;48.818;9.088;2023-03-01T14:34:05;17.47;;;15.40;;
9166;SDS011;4618;48.818;9.088;2023-03-01T14:36:32;17.37;;;15.57;;
9166;SDS011;4618;48.818;9.088;2023-03-01T14:38:58;18.00;;;15.97;;
9166;SDS011;4618;48.818;9.088;2023-03-01T14:41:29;17.17;;;15.33;;
9166;SDS011;4618;48.818;9.088;2023-03-01T14:43:59;21.23;;;15.80;;
9166;SDS011;4618;48.818;9.088;2023-03-01T14:46:35;17.23;;;15.43;;
9166;SDS011;4618;48.818;9.088;2023-03-01T14:49:09;16.93;;;15.27;;
9166;SDS011;4618;48.818;9.088;2023-03-01T14:51:41;16.13;;;14.37;;
9166;SDS011;4618;48.818;9.088;2023-03-01T14:54:56;18.00;;;16.10;;
9166;SDS011;4618;48.818;9.088;2023-03-01T14:57:00;16.77;;;14.83;;
9166;SDS011;4618;48.818;9.088;2023-03-01T14:59:26;17.37;;;14.97;;
9166;SDS011;4618;48.818;9.088;2023-03-01T15:01:53;17.20;;;15.40;;
9166;SDS011;4618;48.818;9.088;2023-03-01T15:04:21;16.67;;;14.87;;
9166;SDS011;4618;48.818;9.088;2023-03-01T15:06:49;17.40;;;15.13;;
9166;SDS011;4618;48.818;9.088;2023-03-01T15:09:16;17.43;;;15.73;;
9166;SDS011;4618;48.818;9.088;2023-03-01T15:11:43;18.60;;;15.83;;
9166;SDS011;4618;48.818;9.088;2023-03-01T15:16:54;16.57;;;14.70;;
9166;SDS011;4618;48.818;9.088;2023-03-01T15:19:21;19.17;;;15.90;;
9166;SDS011;4618;48.818;9.088;2023-03-01T15:21:52;18.20;;;15.43;;
9166;SDS011;4618;48.818;9.088;2023-03-01T15:24:20;17.40;;;14.93;;
9166;SDS011;4618;48.818;9.088;2023-03-01T15:26:56;18.73;;;14.97;;
9166;SDS011;4618;48.818;9.088;2023-03-01T15:29:30;21.30;;;15.60;;
9166;SDS011;4618;48.818;9.088;2023-03-01T15:34:32;18.63;;;15.57;;
9166;SDS011;4618;48.818;9.088;2023-03-01T15:37:02;17.90;;;14.97;;
9166;SDS011;4618;48.818;9.088;2023-03-01T15:41:56;20.20;;;15.37;;
9166;SDS011;4618;48.818;9.088;2023-03-01T15:44:29;17.33;;;15.23;;
9166;SDS011;4618;48.818;9.088;2023-03-01T15:46:56;20.30;;;15.40;;
9166;SDS011;4618;48.818;9.088;2023-03-01T15:52:02;17.03;;;15.30;;
9166;SDS011;4618;48.818;9.088;2023-03-01T15:54:30;21.77;;;14.47;;
9166;SDS011;4618;48.818;9.088;2023-03-01T15:56:56;23.40;;;15.67;;
9166;SDS011;4618;48.818;9.088;2023-03-01T15:59:21;17.67;;;14.97;;
9166;SDS011;4618;48.818;9.088;2023-03-01T16:01:47;16.73;;;14.80;;
9166;SDS011;4618;48.818;9.088;2023-03-01T16:04:14;16.40;;;14.40;;
9166;SDS011;4618;48.818;9.088;2023-03-01T16:06:52;18.67;;;15.20;;
9166;SDS011;4618;48.818;9.088;2023-03-01T16:09:22;17.33;;;15.60;;
9166;SDS011;4618;48.818;9.088;2023-03-01T16:11:51;18.63;;;15.40;;
9166;SDS011;4618;48.818;9.088;2023-03-01T16:14:18;18.20;;;14.67;;
9166;SDS011;4618;48.818;9.088;2023-03-01T16:16:44;16.43;;;14.67;;
9166;SDS011;4618;48.818;9.088;2023-03-01T16:19:10;18.73;;;14.80;;
9166;SDS011;4618;48.818;9.088;2023-03-01T16:21:36;17.87;;;14.90;;
9166;SDS011;4618;48.818;9.088;2023-03-01T16:24:02;17.30;;;15.03;;
9166;SDS011;4618;48.818;9.088;2023-03-01T16:26:28;17.53;;;14.57;;
9166;SDS011;4618;48.818;9.088;2023-03-01T16:28:55;18.37;;;15.20;;
9166;SDS011;4618;48.818;9.088;2023-03-01T16:31:21;20.20;;;15.27;;
9166;SDS011;4618;48.818;9.088;2023-03-01T16:33:48;17.50;;;14.93;;
9166;SDS011;4618;48.818;9.088;2023-03-01T16:36:18;16.77;;;14.43;;
9166;SDS011;4618;48.818;9.088;2023-03-01T16:38:45;18.77;;;15.63;;
9166;SDS011;4618;48.818;9.088;2023-03-01T16:41:11;17.07;;;14.43;;
9166;SDS011;4618;48.818;9.088;2023-03-01T16:43:39;16.43;;;14.60;;
9166;SDS011;4618;48.818;9.088;2023-03-01T16:46:09;17.53;;;15.00;;
9166;SDS011;4618;48.818;9.088;2023-03-01T16:48:37;18.93;;;15.50;;
9166;SDS011;4618;48.818;9.088;2023-03-01T16:51:03;17.50;;;14.77;;
9166;SDS011;4618;48.818;9.088;2023-03-01T16:53:29;19.37;;;15.17;;
9166;SDS011;4618;48.818;9.088;2023-03-01T16:55:55;19.83;;;15.10;;
9166;SDS011;4618;48.818;9.088;2023-03-01T16:58:22;19.63;;;15.30;;
9166;SDS011;4618;48.818;9.088;2023-03-01T17:00:49;20.17;;;15.47;;
9166;SDS011;4618;48.818;9.088;2023-03-01T17:03:19;18.63;;;14.47;;
9166;SDS011;4618;48.818;9.088;2023-03-01T17:05:46;18.23;;;14.67;;